This is the latest recevied weather packets stored in our database for station/object N7MLR. If no packets are shown the sender has not sent any weather packets the latest 10 day(s).
| Time | Temp. | Humidity | Pressure | Rain* | Wind** | Luminosity | Snow |
|---|---|---|---|---|---|---|---|
| 1778103367 | 22.22° C | 76% | 1010.5 hPa | 0 mm | - | 295 W/m² | - |
| 1778103063 | 22.78° C | 75% | 1010.5 hPa | 0 mm | - | 477 W/m² | - |
| 1778102761 | 22.78° C | 74% | 1010.5 hPa | 0 mm | - | 557 W/m² | - |
| 1778102455 | 22.78° C | 74% | 1010.6 hPa | 0 mm | - | 525 W/m² | - |
| 1778102151 | 22.78° C | 76% | 1010.4 hPa | 0 mm | - | 536 W/m² | - |
| 1778101849 | 22.78° C | 74% | 1010.3 hPa | 0 mm | - | 588 W/m² | - |
| 1778101545 | 23.33° C | 74% | 1010.6 hPa | 0 mm | - | 576 W/m² | - |
| 1778101241 | 23.33° C | 75% | 1010.4 hPa | 0 mm | - | 567 W/m² | - |
| 1778100938 | 23.33° C | 75% | 1010.4 hPa | 0 mm | - | 596 W/m² | - |
| 1778100633 | 22.78° C | 76% | 1010.5 hPa | 0 mm | - | 575 W/m² | - |
| 1778100332 | 23.89° C | 74% | 1010.5 hPa | 0 mm | - | 602 W/m² | - |
| 1778100029 | 23.89° C | 75% | 1010.3 hPa | 0 mm | - | 617 W/m² | - |
| 1778099727 | 23.89° C | 74% | 1010.6 hPa | 0 mm | - | 608 W/m² | - |
| 1778099423 | 23.33° C | 75% | 1010.2 hPa | 0 mm | - | 646 W/m² | - |
| 1778099120 | 23.33° C | 76% | 1010.3 hPa | 0 mm | - | 686 W/m² | - |
| 1778098817 | 24.44° C | 74% | 1010.3 hPa | 0 mm | - | 691 W/m² | - |
| 1778098515 | 23.89° C | 77% | 1010.3 hPa | 0 mm | - | 613 W/m² | - |
| 1778098211 | 22.78° C | 80% | 1010.4 hPa | 0 mm | - | 459 W/m² | - |
| 1778097907 | 22.78° C | 81% | 1010.7 hPa | 0 mm | - | 191 W/m² | - |
| 1778097604 | 22.78° C | 81% | 1010.8 hPa | 0 mm | - | 98 W/m² | - |
| 1778097301 | 22.78° C | 81% | 1010.8 hPa | 0 mm | - | 71 W/m² | - |
| 1778096997 | 23.33° C | 81% | 1010.5 hPa | 0 mm | - | 71 W/m² | - |
| 1778096694 | 23.89° C | 78% | 1010.5 hPa | 0 mm | - | 32 W/m² | - |
| 1778096391 | 26.11° C | 76% | 1010.4 hPa | 0 mm | - | 23 W/m² | - |
| 1778096088 | 27.22° C | 75% | 1010.2 hPa | 0 mm | - | 48 W/m² | - |
* Rain latest hour (hover to see other rain measurements)
** Current wind speed in m/s (hover to see current wind gust speed)